sensor_id;sensor_type;location;lat;lon;timestamp;pressure;altitude;pressure_sealevel;temperature;humidity
65997;BME280;52765;52.258;21.052;2023-01-29T00:01:55;101542.47;;;-0.42;77.56
65997;BME280;52765;52.258;21.052;2023-01-29T00:04:20;101538.28;;;-0.48;77.05
65997;BME280;52765;52.258;21.052;2023-01-29T00:06:47;101538.31;;;-0.49;77.74
65997;BME280;52765;52.258;21.052;2023-01-29T00:09:13;101549.72;;;-0.47;78.23
65997;BME280;52765;52.258;21.052;2023-01-29T00:11:39;101523.25;;;-0.47;78.62
65997;BME280;52765;52.258;21.052;2023-01-29T00:14:05;101516.94;;;-0.43;78.93
65997;BME280;52765;52.258;21.052;2023-01-29T00:16:31;101527.38;;;-0.40;78.71
65997;BME280;52765;52.258;21.052;2023-01-29T00:18:56;101521.13;;;-0.38;78.38
65997;BME280;52765;52.258;21.052;2023-01-29T00:21:22;101521.28;;;-0.42;78.93
65997;BME280;52765;52.258;21.052;2023-01-29T00:23:48;101509.03;;;-0.45;80.48
65997;BME280;52765;52.258;21.052;2023-01-29T00:26:15;101511.22;;;-0.56;81.12
65997;BME280;52765;52.258;21.052;2023-01-29T00:28:40;101505.63;;;-0.48;81.39
65997;BME280;52765;52.258;21.052;2023-01-29T00:31:14;101506.97;;;-0.36;80.24
65997;BME280;52765;52.258;21.052;2023-01-29T00:33:40;101497.19;;;-0.34;79.96
65997;BME280;52765;52.258;21.052;2023-01-29T00:36:07;101504.63;;;-0.22;79.85
65997;BME280;52765;52.258;21.052;2023-01-29T00:38:33;101501.59;;;-0.11;77.55
65997;BME280;52765;52.258;21.052;2023-01-29T00:41:28;101499.00;;;-0.13;76.40
65997;BME280;52765;52.258;21.052;2023-01-29T00:44:12;101502.56;;;-0.14;76.54
65997;BME280;52765;52.258;21.052;2023-01-29T00:46:55;101497.63;;;-0.23;76.86
65997;BME280;52765;52.258;21.052;2023-01-29T00:49:21;101499.94;;;-0.38;77.68
65997;BME280;52765;52.258;21.052;2023-01-29T00:51:46;101485.53;;;-0.30;78.25
65997;BME280;52765;52.258;21.052;2023-01-29T00:54:30;101481.34;;;-0.36;76.33
65997;BME280;52765;52.258;21.052;2023-01-29T00:56:56;101489.28;;;-0.36;75.51
65997;BME280;52765;52.258;21.052;2023-01-29T00:59:21;101489.34;;;-0.38;76.07
65997;BME280;52765;52.258;21.052;2023-01-29T01:01:47;101476.09;;;-0.38;76.19
65997;BME280;52765;52.258;21.052;2023-01-29T01:04:30;101467.38;;;-0.40;76.08
65997;BME280;52765;52.258;21.052;2023-01-29T01:06:56;101471.72;;;-0.39;75.17
65997;BME280;52765;52.258;21.052;2023-01-29T01:09:21;101469.13;;;-0.40;74.69
65997;BME280;52765;52.258;21.052;2023-01-29T01:12:05;101450.03;;;-0.48;75.97
65997;BME280;52765;52.258;21.052;2023-01-29T01:14:31;101452.56;;;-0.45;75.81
65997;BME280;52765;52.258;21.052;2023-01-29T01:16:59;101442.09;;;-0.48;77.06
65997;BME280;52765;52.258;21.052;2023-01-29T01:19:24;101439.59;;;-0.51;77.31
65997;BME280;52765;52.258;21.052;2023-01-29T01:21:49;101445.69;;;-0.49;76.22
65997;BME280;52765;52.258;21.052;2023-01-29T01:24:15;101446.34;;;-0.44;75.72
65997;BME280;52765;52.258;21.052;2023-01-29T01:26:40;101439.16;;;-0.41;75.73
65997;BME280;52765;52.258;21.052;2023-01-29T01:29:06;101439.31;;;-0.45;75.54
65997;BME280;52765;52.258;21.052;2023-01-29T01:31:31;101443.53;;;-0.40;76.08
65997;BME280;52765;52.258;21.052;2023-01-29T01:33:57;101433.69;;;-0.36;76.09
65997;BME280;52765;52.258;21.052;2023-01-29T01:36:22;101437.31;;;-0.39;75.82
65997;BME280;52765;52.258;21.052;2023-01-29T01:38:48;101438.06;;;-0.59;76.82
65997;BME280;52765;52.258;21.052;2023-01-29T01:41:15;101446.38;;;-0.68;77.22
65997;BME280;52765;52.258;21.052;2023-01-29T01:43:57;101442.06;;;-0.70;77.95
65997;BME280;52765;52.258;21.052;2023-01-29T01:46:24;101425.25;;;-0.69;77.83
65997;BME280;52765;52.258;21.052;2023-01-29T01:49:16;101449.03;;;-0.68;78.31
65997;BME280;52765;52.258;21.052;2023-01-29T01:51:45;101445.75;;;-0.75;78.66
65997;BME280;52765;52.258;21.052;2023-01-29T01:54:16;101444.06;;;-0.77;78.54
65997;BME280;52765;52.258;21.052;2023-01-29T01:56:48;101444.81;;;-0.73;79.72
65997;BME280;52765;52.258;21.052;2023-01-29T01:59:18;101443.25;;;-0.79;79.20
65997;BME280;52765;52.258;21.052;2023-01-29T02:01:47;101444.84;;;-0.75;79.27
65997;BME280;52765;52.258;21.052;2023-01-29T02:04:16;101434.84;;;-0.67;78.08
65997;BME280;52765;52.258;21.052;2023-01-29T02:07:03;101453.03;;;-0.58;78.47
65997;BME280;52765;52.258;21.052;2023-01-29T02:10:05;101448.59;;;-0.57;77.91
65997;BME280;52765;52.258;21.052;2023-01-29T02:12:33;101450.41;;;-0.58;77.60
65997;BME280;52765;52.258;21.052;2023-01-29T02:14:59;101446.59;;;-0.50;77.79
65997;BME280;52765;52.258;21.052;2023-01-29T02:17:24;101445.63;;;-0.48;77.26
65997;BME280;52765;52.258;21.052;2023-01-29T02:20:05;101449.53;;;-0.58;77.57
65997;BME280;52765;52.258;21.052;2023-01-29T02:31:15;101428.72;;;-0.67;78.87
65997;BME280;52765;52.258;21.052;2023-01-29T02:42:27;101415.94;;;-0.56;77.74
65997;BME280;52765;52.258;21.052;2023-01-29T02:45:11;101414.06;;;-0.54;77.91
65997;BME280;52765;52.258;21.052;2023-01-29T02:50:12;101411.53;;;-0.57;78.88
65997;BME280;52765;52.258;21.052;2023-01-29T02:52:44;101410.31;;;-0.48;78.64
65997;BME280;52765;52.258;21.052;2023-01-29T02:55:35;101419.94;;;-0.46;77.99
65997;BME280;52765;52.258;21.052;2023-01-29T02:58:30;101419.31;;;-0.52;79.79
65997;BME280;52765;52.258;21.052;2023-01-29T03:01:02;101415.06;;;-0.57;79.70
65997;BME280;52765;52.258;21.052;2023-01-29T03:03:35;101412.78;;;-0.66;80.62
65997;BME280;52765;52.258;21.052;2023-01-29T03:06:13;101398.75;;;-0.68;81.19
65997;BME280;52765;52.258;21.052;2023-01-29T03:08:46;101406.06;;;-0.75;82.23
65997;BME280;52765;52.258;21.052;2023-01-29T03:11:15;101403.41;;;-0.75;82.09
65997;BME280;52765;52.258;21.052;2023-01-29T03:13:58;101408.00;;;-0.80;83.39
65997;BME280;52765;52.258;21.052;2023-01-29T03:16:32;101405.16;;;-0.75;83.04
65997;BME280;52765;52.258;21.052;2023-01-29T03:19:04;101395.47;;;-0.75;82.72
65997;BME280;52765;52.258;21.052;2023-01-29T03:21:33;101393.47;;;-0.91;84.23
65997;BME280;52765;52.258;21.052;2023-01-29T03:24:36;101401.41;;;-0.91;84.08
65997;BME280;52765;52.258;21.052;2023-01-29T03:27:26;101387.13;;;-0.87;84.09
65997;BME280;52765;52.258;21.052;2023-01-29T03:30:15;101381.78;;;-0.86;83.81
65997;BME280;52765;52.258;21.052;2023-01-29T03:33:04;101396.22;;;-0.95;84.04
65997;BME280;52765;52.258;21.052;2023-01-29T03:35:35;101392.69;;;-0.95;85.00
65997;BME280;52765;52.258;21.052;2023-01-29T03:38:06;101393.53;;;-0.93;84.99
65997;BME280;52765;52.258;21.052;2023-01-29T03:46:09;101394.16;;;-0.86;84.05
65997;BME280;52765;52.258;21.052;2023-01-29T03:48:45;101392.25;;;-0.83;83.93
65997;BME280;52765;52.258;21.052;2023-01-29T03:54:20;101387.19;;;-0.89;84.70
65997;BME280;52765;52.258;21.052;2023-01-29T03:57:17;101387.97;;;-0.87;84.90
65997;BME280;52765;52.258;21.052;2023-01-29T03:59:56;101400.25;;;-0.84;84.89
65997;BME280;52765;52.258;21.052;2023-01-29T04:02:30;101382.56;;;-0.84;84.60
65997;BME280;52765;52.258;21.052;2023-01-29T04:05:05;101374.69;;;-0.85;84.99
65997;BME280;52765;52.258;21.052;2023-01-29T04:07:36;101369.47;;;-0.87;84.41
65997;BME280;52765;52.258;21.052;2023-01-29T04:10:22;101387.41;;;-0.71;84.56
65997;BME280;52765;52.258;21.052;2023-01-29T04:13:00;101374.41;;;-0.78;84.80
65997;BME280;52765;52.258;21.052;2023-01-29T04:15:30;101381.28;;;-0.73;85.08
65997;BME280;52765;52.258;21.052;2023-01-29T04:17:57;101373.91;;;-0.87;85.02
65997;BME280;52765;52.258;21.052;2023-01-29T04:20:24;101372.06;;;-0.85;85.30
65997;BME280;52765;52.258;21.052;2023-01-29T04:22:50;101362.59;;;-0.69;85.18
65997;BME280;52765;52.258;21.052;2023-01-29T04:25:20;101357.13;;;-0.64;84.04
65997;BME280;52765;52.258;21.052;2023-01-29T04:30:53;101350.78;;;-0.60;84.07
65997;BME280;52765;52.258;21.052;2023-01-29T04:46:32;101349.59;;;-0.75;84.18
65997;BME280;52765;52.258;21.052;2023-01-29T04:54:23;101341.88;;;-0.80;84.82
65997;BME280;52765;52.258;21.052;2023-01-29T04:57:17;101343.88;;;-0.86;85.74
65997;BME280;52765;52.258;21.052;2023-01-29T04:59:52;101345.72;;;-0.88;85.74
65997;BME280;52765;52.258;21.052;2023-01-29T05:02:23;101346.06;;;-0.98;86.10
65997;BME280;52765;52.258;21.052;2023-01-29T05:04:49;101339.69;;;-0.92;85.78
65997;BME280;52765;52.258;21.052;2023-01-29T05:07:16;101333.03;;;-0.80;86.08
65997;BME280;52765;52.258;21.052;2023-01-29T05:09:44;101332.06;;;-0.78;86.01
65997;BME280;52765;52.258;21.052;2023-01-29T05:12:13;101346.84;;;-0.72;85.57
65997;BME280;52765;52.258;21.052;2023-01-29T05:14:42;101342.53;;;-0.75;85.20
65997;BME280;52765;52.258;21.052;2023-01-29T05:17:17;101327.63;;;-0.77;85.09
65997;BME280;52765;52.258;21.052;2023-01-29T05:19:43;101331.84;;;-0.71;84.64
65997;BME280;52765;52.258;21.052;2023-01-29T05:22:11;101332.47;;;-0.65;85.62
65997;BME280;52765;52.258;21.052;2023-01-29T05:24:37;101337.81;;;-0.66;85.17
65997;BME280;52765;52.258;21.052;2023-01-29T05:27:03;101337.75;;;-0.65;85.18
65997;BME280;52765;52.258;21.052;2023-01-29T05:29:47;101330.38;;;-0.57;84.48
65997;BME280;52765;52.258;21.052;2023-01-29T05:32:13;101326.91;;;-0.59;85.02
65997;BME280;52765;52.258;21.052;2023-01-29T05:34:39;101319.59;;;-0.52;83.83
65997;BME280;52765;52.258;21.052;2023-01-29T05:37:05;101318.28;;;-0.64;84.12
65997;BME280;52765;52.258;21.052;2023-01-29T05:39:30;101316.59;;;-0.65;84.19
65997;BME280;52765;52.258;21.052;2023-01-29T05:41:56;101305.13;;;-0.65;84.26
65997;BME280;52765;52.258;21.052;2023-01-29T05:44:23;101307.41;;;-0.78;86.31
65997;BME280;52765;52.258;21.052;2023-01-29T05:46:49;101308.16;;;-0.75;85.30
65997;BME280;52765;52.258;21.052;2023-01-29T05:49:16;101311.59;;;-0.72;85.55
65997;BME280;52765;52.258;21.052;2023-01-29T05:51:42;101305.31;;;-0.70;84.92
65997;BME280;52765;52.258;21.052;2023-01-29T05:54:10;101305.38;;;-0.71;85.09
65997;BME280;52765;52.258;21.052;2023-01-29T05:56:36;101306.34;;;-0.74;85.37
65997;BME280;52765;52.258;21.052;2023-01-29T05:59:01;101292.94;;;-0.69;85.44
65997;BME280;52765;52.258;21.052;2023-01-29T06:01:27;101297.38;;;-0.70;85.31
65997;BME280;52765;52.258;21.052;2023-01-29T06:03:52;101300.81;;;-0.68;85.65
65997;BME280;52765;52.258;21.052;2023-01-29T06:06:18;101312.09;;;-0.63;85.29
65997;BME280;52765;52.258;21.052;2023-01-29T06:08:43;101310.19;;;-0.59;85.34
65997;BME280;52765;52.258;21.052;2023-01-29T06:11:11;101316.53;;;-0.63;85.08
65997;BME280;52765;52.258;21.052;2023-01-29T06:13:37;101310.28;;;-0.84;85.62
65997;BME280;52765;52.258;21.052;2023-01-29T06:16:05;101317.16;;;-0.80;85.57
65997;BME280;52765;52.258;21.052;2023-01-29T06:18:31;101311.66;;;-0.74;85.89
65997;BME280;52765;52.258;21.052;2023-01-29T06:21:09;101301.00;;;-0.72;85.86
65997;BME280;52765;52.258;21.052;2023-01-29T06:23:35;101309.63;;;-0.67;85.81
65997;BME280;52765;52.258;21.052;2023-01-29T06:26:10;101318.63;;;-0.71;86.34
65997;BME280;52765;52.258;21.052;2023-01-29T06:28:36;101312.22;;;-0.66;85.00
65997;BME280;52765;52.258;21.052;2023-01-29T06:31:03;101315.19;;;-0.75;85.18
65997;BME280;52765;52.258;21.052;2023-01-29T06:33:29;101313.72;;;-0.82;86.21
65997;BME280;52765;52.258;21.052;2023-01-29T06:35:59;101322.41;;;-0.79;86.18
65997;BME280;52765;52.258;21.052;2023-01-29T06:38:34;101312.50;;;-0.73;85.52
65997;BME280;52765;52.258;21.052;2023-01-29T06:41:08;101321.44;;;-0.76;85.82
65997;BME280;52765;52.258;21.052;2023-01-29T06:43:33;101311.81;;;-0.79;86.11
65997;BME280;52765;52.258;21.052;2023-01-29T06:45:59;101301.34;;;-0.82;85.96
65997;BME280;52765;52.258;21.052;2023-01-29T06:48:24;101303.09;;;-0.81;85.71
65997;BME280;52765;52.258;21.052;2023-01-29T06:50:50;101300.38;;;-0.79;86.22
65997;BME280;52765;52.258;21.052;2023-01-29T06:53:19;101308.25;;;-0.78;86.14
65997;BME280;52765;52.258;21.052;2023-01-29T06:55:51;101313.44;;;-0.75;86.50
65997;BME280;52765;52.258;21.052;2023-01-29T06:58:17;101310.97;;;-0.79;86.14
65997;BME280;52765;52.258;21.052;2023-01-29T07:00:43;101314.22;;;-0.72;85.47
65997;BME280;52765;52.258;21.052;2023-01-29T07:03:08;101313.88;;;-0.63;84.93
65997;BME280;52765;52.258;21.052;2023-01-29T07:05:35;101311.91;;;-0.58;84.69
65997;BME280;52765;52.258;21.052;2023-01-29T07:08:01;101298.84;;;-0.63;84.50
65997;BME280;52765;52.258;21.052;2023-01-29T07:10:26;101288.94;;;-0.58;85.26
65997;BME280;52765;52.258;21.052;2023-01-29T07:12:52;101290.22;;;-0.46;83.96
65997;BME280;52765;52.258;21.052;2023-01-29T07:15:17;101287.94;;;-0.33;83.47
65997;BME280;52765;52.258;21.052;2023-01-29T07:18:01;101286.66;;;-0.45;84.51
65997;BME280;52765;52.258;21.052;2023-01-29T07:20:28;101281.44;;;-0.46;83.19
65997;BME280;52765;52.258;21.052;2023-01-29T07:22:56;101287.41;;;-0.41;83.58
65997;BME280;52765;52.258;21.052;2023-01-29T07:25:23;101295.34;;;-0.41;83.70
65997;BME280;52765;52.258;21.052;2023-01-29T07:27:49;101283.81;;;-0.40;83.71
65997;BME280;52765;52.258;21.052;2023-01-29T07:30:15;101292.81;;;-0.44;84.42
65997;BME280;52765;52.258;21.052;2023-01-29T07:32:40;101308.09;;;-0.51;83.96
65997;BME280;52765;52.258;21.052;2023-01-29T07:35:06;101319.41;;;-0.47;84.24
65997;BME280;52765;52.258;21.052;2023-01-29T07:37:32;101307.06;;;-0.48;84.12
65997;BME280;52765;52.258;21.052;2023-01-29T07:39:57;101298.75;;;-0.60;84.82
65997;BME280;52765;52.258;21.052;2023-01-29T07:42:23;101304.88;;;-0.59;84.71
65997;BME280;52765;52.258;21.052;2023-01-29T07:44:48;101326.09;;;-0.39;84.44
65997;BME280;52765;52.258;21.052;2023-01-29T07:47:14;101325.13;;;-0.36;84.01
65997;BME280;52765;52.258;21.052;2023-01-29T07:49:39;101302.44;;;-0.42;84.01
65997;BME280;52765;52.258;21.052;2023-01-29T07:52:04;101309.78;;;-0.28;83.49
65997;BME280;52765;52.258;21.052;2023-01-29T07:54:30;101306.72;;;-0.39;84.43
65997;BME280;52765;52.258;21.052;2023-01-29T07:56:55;101291.38;;;-0.31;83.73
65997;BME280;52765;52.258;21.052;2023-01-29T07:59:21;101286.94;;;-0.30;83.41
65997;BME280;52765;52.258;21.052;2023-01-29T08:01:46;101286.16;;;-0.12;83.18
65997;BME280;52765;52.258;21.052;2023-01-29T08:04:16;101282.84;;;-0.17;82.06
65997;BME280;52765;52.258;21.052;2023-01-29T08:06:42;101301.19;;;-0.33;82.77
65997;BME280;52765;52.258;21.052;2023-01-29T08:09:07;101293.72;;;-0.45;83.56
65997;BME280;52765;52.258;21.052;2023-01-29T08:11:33;101297.25;;;-0.45;83.21
65997;BME280;52765;52.258;21.052;2023-01-29T08:13:58;101289.72;;;-0.56;84.19
65997;BME280;52765;52.258;21.052;2023-01-29T08:16:24;101277.44;;;-0.57;84.88
65997;BME280;52765;52.258;21.052;2023-01-29T08:18:49;101265.97;;;-0.57;84.37
65997;BME280;52765;52.258;21.052;2023-01-29T08:21:16;101278.38;;;-0.37;84.54
65997;BME280;52765;52.258;21.052;2023-01-29T08:23:41;101270.00;;;-0.26;83.21
65997;BME280;52765;52.258;21.052;2023-01-29T08:26:07;101269.94;;;-0.25;82.55
65997;BME280;52765;52.258;21.052;2023-01-29T08:28:33;101282.72;;;-0.14;82.38
65997;BME280;52765;52.258;21.052;2023-01-29T08:30:59;101275.84;;;0.03;81.54
65997;BME280;52765;52.258;21.052;2023-01-29T08:33:26;101282.16;;;0.00;80.87
65997;BME280;52765;52.258;21.052;2023-01-29T08:35:53;101293.41;;;0.05;80.65
65997;BME280;52765;52.258;21.052;2023-01-29T08:38:18;101278.47;;;0.03;80.63
65997;BME280;52765;52.258;21.052;2023-01-29T08:40:44;101290.00;;;0.02;80.33
65997;BME280;52765;52.258;21.052;2023-01-29T08:43:11;101288.75;;;0.10;80.12
65997;BME280;52765;52.258;21.052;2023-01-29T08:45:41;101288.41;;;0.18;79.36
65997;BME280;52765;52.258;21.052;2023-01-29T08:48:08;101287.63;;;0.16;79.88
65997;BME280;52765;52.258;21.052;2023-01-29T08:50:34;101285.75;;;0.18;80.43
65997;BME280;52765;52.258;21.052;2023-01-29T08:53:03;101280.59;;;0.15;80.30
65997;BME280;52765;52.258;21.052;2023-01-29T08:55:31;101275.22;;;0.16;80.48
65997;BME280;52765;52.258;21.052;2023-01-29T08:57:57;101280.19;;;0.24;79.71
65997;BME280;52765;52.258;21.052;2023-01-29T09:00:22;101276.25;;;0.33;79.46
65997;BME280;52765;52.258;21.052;2023-01-29T09:02:48;101266.97;;;0.43;78.49
65997;BME280;52765;52.258;21.052;2023-01-29T09:05:14;101258.09;;;0.44;77.81
65997;BME280;52765;52.258;21.052;2023-01-29T09:07:39;101248.41;;;0.43;78.63
65997;BME280;52765;52.258;21.052;2023-01-29T09:10:05;101267.25;;;0.37;79.36
65997;BME280;52765;52.258;21.052;2023-01-29T09:12:30;101267.72;;;0.26;81.51
65997;BME280;52765;52.258;21.052;2023-01-29T09:14:59;101252.31;;;0.15;81.71
65997;BME280;52765;52.258;21.052;2023-01-29T09:17:28;101249.16;;;0.07;83.65
65997;BME280;52765;52.258;21.052;2023-01-29T09:19:54;101244.31;;;-0.04;85.80
65997;BME280;52765;52.258;21.052;2023-01-29T09:22:19;101242.38;;;-0.21;86.29
65997;BME280;52765;52.258;21.052;2023-01-29T09:24:45;101233.34;;;-0.15;87.27
65997;BME280;52765;52.258;21.052;2023-01-29T09:27:10;101230.94;;;-0.01;87.13
65997;BME280;52765;52.258;21.052;2023-01-29T09:29:37;101249.66;;;0.15;86.75
65997;BME280;52765;52.258;21.052;2023-01-29T09:32:03;101235.53;;;0.15;87.20
65997;BME280;52765;52.258;21.052;2023-01-29T09:34:29;101247.16;;;0.12;87.83
65997;BME280;52765;52.258;21.052;2023-01-29T09:36:57;101241.53;;;-0.01;88.87
65997;BME280;52765;52.258;21.052;2023-01-29T09:39:23;101238.94;;;-0.02;89.08
65997;BME280;52765;52.258;21.052;2023-01-29T09:46:54;101239.41;;;-0.13;89.67
65997;BME280;52765;52.258;21.052;2023-01-29T09:49:27;101231.34;;;-0.10;90.15
65997;BME280;52765;52.258;21.052;2023-01-29T09:52:00;101230.28;;;-0.06;91.10
65997;BME280;52765;52.258;21.052;2023-01-29T09:54:31;101220.00;;;0.07;89.95
65997;BME280;52765;52.258;21.052;2023-01-29T09:57:00;101208.06;;;0.17;89.76
65997;BME280;52765;52.258;21.052;2023-01-29T09:59:28;101215.88;;;0.40;88.28
65997;BME280;52765;52.258;21.052;2023-01-29T10:02:09;101198.34;;;0.56;87.29
65997;BME280;52765;52.258;21.052;2023-01-29T10:07:25;101202.19;;;0.68;87.47
65997;BME280;52765;52.258;21.052;2023-01-29T10:18:38;101208.38;;;0.49;90.32
65997;BME280;52765;52.258;21.052;2023-01-29T10:24:25;101186.38;;;0.47;91.17
65997;BME280;52765;52.258;21.052;2023-01-29T10:26:58;101184.06;;;0.40;91.99
65997;BME280;52765;52.258;21.052;2023-01-29T10:29:26;101185.16;;;0.35;92.41
65997;BME280;52765;52.258;21.052;2023-01-29T10:31:56;101199.91;;;0.41;93.19
65997;BME280;52765;52.258;21.052;2023-01-29T10:34:37;101180.91;;;0.31;95.23
65997;BME280;52765;52.258;21.052;2023-01-29T10:37:21;101179.28;;;0.29;94.61
65997;BME280;52765;52.258;21.052;2023-01-29T10:39:48;101181.78;;;0.32;94.33
65997;BME280;52765;52.258;21.052;2023-01-29T10:42:25;101185.22;;;0.34;94.38
65997;BME280;52765;52.258;21.052;2023-01-29T11:01:58;101178.44;;;-0.11;98.10
65997;BME280;52765;52.258;21.052;2023-01-29T11:04:25;101167.19;;;-0.16;98.01
65997;BME280;52765;52.258;21.052;2023-01-29T11:06:52;101162.09;;;-0.21;98.65
65997;BME280;52765;52.258;21.052;2023-01-29T11:09:31;101155.19;;;-0.05;97.83
65997;BME280;52765;52.258;21.052;2023-01-29T11:12:08;101160.75;;;0.08;97.00
65997;BME280;52765;52.258;21.052;2023-01-29T11:14:47;101163.94;;;0.16;96.84
65997;BME280;52765;52.258;21.052;2023-01-29T11:17:20;101159.56;;;0.15;96.84
65997;BME280;52765;52.258;21.052;2023-01-29T11:19:48;101127.91;;;0.12;96.46
65997;BME280;52765;52.258;21.052;2023-01-29T11:22:17;101134.16;;;0.30;95.25
65997;BME280;52765;52.258;21.052;2023-01-29T11:24:45;101139.44;;;0.49;94.68
65997;BME280;52765;52.258;21.052;2023-01-29T11:27:23;101118.56;;;0.61;95.10
65997;BME280;52765;52.258;21.052;2023-01-29T11:29:52;101118.84;;;0.73;94.31
65997;BME280;52765;52.258;21.052;2023-01-29T11:37:34;101103.91;;;0.53;95.23
65997;BME280;52765;52.258;21.052;2023-01-29T11:40:00;101082.28;;;0.44;94.64
65997;BME280;52765;52.258;21.052;2023-01-29T11:42:30;101081.41;;;0.43;94.88
65997;BME280;52765;52.258;21.052;2023-01-29T11:44:55;101064.38;;;0.30;94.91
65997;BME280;52765;52.258;21.052;2023-01-29T11:47:25;101081.16;;;0.30;95.53
65997;BME280;52765;52.258;21.052;2023-01-29T11:49:54;101056.09;;;0.18;96.22
65997;BME280;52765;52.258;21.052;2023-01-29T11:52:25;101065.75;;;0.20;96.99
65997;BME280;52765;52.258;21.052;2023-01-29T11:55:00;101055.84;;;0.23;95.98
65997;BME280;52765;52.258;21.052;2023-01-29T11:57:39;101074.75;;;0.34;95.59
65997;BME280;52765;52.258;21.052;2023-01-29T12:00:19;101049.56;;;0.26;96.63
65997;BME280;52765;52.258;21.052;2023-01-29T12:02:56;101060.38;;;0.21;96.94
65997;BME280;52765;52.258;21.052;2023-01-29T12:05:26;101051.19;;;0.28;96.98
65997;BME280;52765;52.258;21.052;2023-01-29T12:07:55;101054.41;;;0.35;96.27
65997;BME280;52765;52.258;21.052;2023-01-29T12:10:40;101048.81;;;0.41;97.14
65997;BME280;52765;52.258;21.052;2023-01-29T12:15:38;101042.91;;;0.17;97.57
65997;BME280;52765;52.258;21.052;2023-01-29T12:18:25;101041.81;;;0.21;97.47
65997;BME280;52765;52.258;21.052;2023-01-29T12:32:59;101032.31;;;0.17;97.99
65997;BME280;52765;52.258;21.052;2023-01-29T12:35:27;101024.88;;;0.06;99.72
65997;BME280;52765;52.258;21.052;2023-01-29T12:40:39;101014.91;;;0.11;98.94
65997;BME280;52765;52.258;21.052;2023-01-29T12:43:18;101010.19;;;-0.01;99.56
65997;BME280;52765;52.258;21.052;2023-01-29T12:45:53;101006.22;;;-0.10;100.00
65997;BME280;52765;52.258;21.052;2023-01-29T12:48:29;101014.28;;;0.06;100.00
65997;BME280;52765;52.258;21.052;2023-01-29T12:51:05;100985.22;;;-0.14;100.00
65997;BME280;52765;52.258;21.052;2023-01-29T12:53:38;100996.75;;;-0.15;100.00
65997;BME280;52765;52.258;21.052;2023-01-29T12:58:54;100987.88;;;-0.14;100.00
65997;BME280;52765;52.258;21.052;2023-01-29T13:01:30;100979.38;;;-0.21;100.00
65997;BME280;52765;52.258;21.052;2023-01-29T13:06:52;100986.44;;;-0.03;100.00
65997;BME280;52765;52.258;21.052;2023-01-29T13:09:27;100992.09;;;0.09;100.00
65997;BME280;52765;52.258;21.052;2023-01-29T13:12:17;101000.44;;;0.18;100.00
65997;BME280;52765;52.258;21.052;2023-01-29T13:14:49;101011.91;;;0.19;100.00
65997;BME280;52765;52.258;21.052;2023-01-29T13:17:35;101018.19;;;0.35;100.00
65997;BME280;52765;52.258;21.052;2023-01-29T13:20:35;101014.97;;;0.29;100.00
65997;BME280;52765;52.258;21.052;2023-01-29T13:22:57;101007.56;;;0.35;100.00
65997;BME280;52765;52.258;21.052;2023-01-29T13:25:24;100993.44;;;0.35;100.00
65997;BME280;52765;52.258;21.052;2023-01-29T13:27:50;101003.34;;;0.31;100.00
65997;BME280;52765;52.258;21.052;2023-01-29T13:30:44;101006.69;;;0.35;100.00
65997;BME280;52765;52.258;21.052;2023-01-29T13:33:20;101001.56;;;0.32;100.00
65997;BME280;52765;52.258;21.052;2023-01-29T13:35:48;101000.53;;;0.34;100.00
65997;BME280;52765;52.258;21.052;2023-01-29T13:38:28;100995.16;;;0.18;100.00
65997;BME280;52765;52.258;21.052;2023-01-29T13:40:59;100981.41;;;0.10;100.00
65997;BME280;52765;52.258;21.052;2023-01-29T13:43:26;100981.47;;;0.09;100.00
65997;BME280;52765;52.258;21.052;2023-01-29T13:45:55;100966.59;;;0.06;100.00
65997;BME280;52765;52.258;21.052;2023-01-29T13:48:24;100956.19;;;0.02;100.00
65997;BME280;52765;52.258;21.052;2023-01-29T13:50:52;100952.22;;;-0.07;100.00
65997;BME280;52765;52.258;21.052;2023-01-29T13:53:28;100965.16;;;-0.01;100.00
65997;BME280;52765;52.258;21.052;2023-01-29T13:59:20;100972.84;;;0.05;100.00
65997;BME280;52765;52.258;21.052;2023-01-29T14:06:46;100977.91;;;-0.09;100.00
65997;BME280;52765;52.258;21.052;2023-01-29T14:09:30;100969.41;;;-0.16;100.00
65997;BME280;52765;52.258;21.052;2023-01-29T14:11:56;100992.91;;;-0.08;100.00
65997;BME280;52765;52.258;21.052;2023-01-29T14:17:24;101000.19;;;-0.32;100.00
65997;BME280;52765;52.258;21.052;2023-01-29T14:19:53;101019.50;;;-0.30;100.00
65997;BME280;52765;52.258;21.052;2023-01-29T14:22:24;101002.06;;;-0.34;100.00
65997;BME280;52765;52.258;21.052;2023-01-29T14:24:57;100990.63;;;-0.35;100.00
65997;BME280;52765;52.258;21.052;2023-01-29T14:27:25;100998.63;;;-0.36;100.00
65997;BME280;52765;52.258;21.052;2023-01-29T14:30:01;100995.09;;;-0.37;100.00
65997;BME280;52765;52.258;21.052;2023-01-29T14:32:28;100993.91;;;-0.30;100.00
65997;BME280;52765;52.258;21.052;2023-01-29T14:35:02;100992.03;;;-0.28;100.00
65997;BME280;52765;52.258;21.052;2023-01-29T14:37:36;100989.47;;;-0.29;100.00
65997;BME280;52765;52.258;21.052;2023-01-29T14:42:57;100968.63;;;-0.37;100.00
65997;BME280;52765;52.258;21.052;2023-01-29T14:53:20;100956.19;;;-0.35;100.00
65997;BME280;52765;52.258;21.052;2023-01-29T14:55:57;100960.41;;;-0.31;100.00
65997;BME280;52765;52.258;21.052;2023-01-29T14:58:30;100955.94;;;-0.30;100.00
65997;BME280;52765;52.258;21.052;2023-01-29T15:01:00;100979.84;;;-0.32;100.00
65997;BME280;52765;52.258;21.052;2023-01-29T15:03:40;100978.66;;;-0.25;100.00
65997;BME280;52765;52.258;21.052;2023-01-29T15:06:22;100976.84;;;-0.24;100.00
65997;BME280;52765;52.258;21.052;2023-01-29T15:08:59;100973.13;;;-0.20;100.00
65997;BME280;52765;52.258;21.052;2023-01-29T15:11:29;100966.97;;;-0.21;100.00
65997;BME280;52765;52.258;21.052;2023-01-29T15:14:16;100960.69;;;-0.18;100.00
65997;BME280;52765;52.258;21.052;2023-01-29T15:17:17;100950.31;;;-0.23;100.00